sensor_id;sensor_type;location;lat;lon;timestamp;P1;durP1;ratioP1;P2;durP2;ratioP2
9166;SDS011;4618;48.818;9.088;2023-06-19T00:02:16;6.45;;;5.90;;
9166;SDS011;4618;48.818;9.088;2023-06-19T00:04:41;6.32;;;5.63;;
9166;SDS011;4618;48.818;9.088;2023-06-19T00:07:07;7.63;;;5.80;;
9166;SDS011;4618;48.818;9.088;2023-06-19T00:09:33;8.80;;;5.88;;
9166;SDS011;4618;48.818;9.088;2023-06-19T00:11:58;6.57;;;6.07;;
9166;SDS011;4618;48.818;9.088;2023-06-19T00:14:24;7.38;;;6.10;;
9166;SDS011;4618;48.818;9.088;2023-06-19T00:16:50;6.95;;;6.28;;
9166;SDS011;4618;48.818;9.088;2023-06-19T00:19:16;6.20;;;5.70;;
9166;SDS011;4618;48.818;9.088;2023-06-19T00:21:42;6.50;;;6.00;;
9166;SDS011;4618;48.818;9.088;2023-06-19T00:24:09;6.95;;;6.15;;
9166;SDS011;4618;48.818;9.088;2023-06-19T00:26:35;7.13;;;6.00;;
9166;SDS011;4618;48.818;9.088;2023-06-19T00:29:00;9.57;;;5.97;;
9166;SDS011;4618;48.818;9.088;2023-06-19T00:31:26;6.60;;;6.00;;
9166;SDS011;4618;48.818;9.088;2023-06-19T00:33:52;6.93;;;5.50;;
9166;SDS011;4618;48.818;9.088;2023-06-19T00:36:18;7.82;;;5.88;;
9166;SDS011;4618;48.818;9.088;2023-06-19T00:38:45;6.30;;;5.50;;
9166;SDS011;4618;48.818;9.088;2023-06-19T00:41:11;6.22;;;5.70;;
9166;SDS011;4618;48.818;9.088;2023-06-19T00:43:37;6.47;;;5.88;;
9166;SDS011;4618;48.818;9.088;2023-06-19T00:46:03;6.72;;;5.88;;
9166;SDS011;4618;48.818;9.088;2023-06-19T00:48:29;6.57;;;5.97;;
9166;SDS011;4618;48.818;9.088;2023-06-19T00:50:56;6.45;;;5.95;;
9166;SDS011;4618;48.818;9.088;2023-06-19T00:53:22;7.28;;;5.75;;
9166;SDS011;4618;48.818;9.088;2023-06-19T00:55:48;6.00;;;5.40;;
9166;SDS011;4618;48.818;9.088;2023-06-19T00:58:16;6.88;;;5.38;;
9166;SDS011;4618;48.818;9.088;2023-06-19T01:00:42;6.22;;;5.63;;
9166;SDS011;4618;48.818;9.088;2023-06-19T01:03:08;5.97;;;5.28;;
9166;SDS011;4618;48.818;9.088;2023-06-19T01:05:34;6.50;;;5.72;;
9166;SDS011;4618;48.818;9.088;2023-06-19T01:10:39;6.38;;;5.88;;
9166;SDS011;4618;48.818;9.088;2023-06-19T01:13:19;8.48;;;5.57;;
9166;SDS011;4618;48.818;9.088;2023-06-19T01:15:59;6.83;;;5.47;;
9166;SDS011;4618;48.818;9.088;2023-06-19T01:18:27;5.83;;;4.90;;
9166;SDS011;4618;48.818;9.088;2023-06-19T01:20:54;6.23;;;4.13;;
9166;SDS011;4618;48.818;9.088;2023-06-19T01:23:20;5.33;;;4.00;;
9166;SDS011;4618;48.818;9.088;2023-06-19T01:25:45;5.70;;;4.07;;
9166;SDS011;4618;48.818;9.088;2023-06-19T01:28:11;6.22;;;3.80;;
9166;SDS011;4618;48.818;9.088;2023-06-19T01:30:41;3.90;;;3.60;;
9166;SDS011;4618;48.818;9.088;2023-06-19T01:33:23;6.33;;;3.57;;
9166;SDS011;4618;48.818;9.088;2023-06-19T01:35:52;4.80;;;3.83;;
9166;SDS011;4618;48.818;9.088;2023-06-19T01:38:20;6.37;;;3.73;;
9166;SDS011;4618;48.818;9.088;2023-06-19T01:40:48;3.50;;;3.30;;
9166;SDS011;4618;48.818;9.088;2023-06-19T01:43:14;5.17;;;3.57;;
9166;SDS011;4618;48.818;9.088;2023-06-19T01:45:41;5.03;;;4.00;;
9166;SDS011;4618;48.818;9.088;2023-06-19T01:48:08;4.03;;;3.63;;
9166;SDS011;4618;48.818;9.088;2023-06-19T01:50:33;4.53;;;3.77;;
9166;SDS011;4618;48.818;9.088;2023-06-19T01:52:59;4.43;;;3.90;;
9166;SDS011;4618;48.818;9.088;2023-06-19T01:55:25;5.83;;;3.70;;
9166;SDS011;4618;48.818;9.088;2023-06-19T01:57:51;5.23;;;3.50;;
9166;SDS011;4618;48.818;9.088;2023-06-19T02:00:16;4.00;;;3.60;;
9166;SDS011;4618;48.818;9.088;2023-06-19T02:02:42;3.97;;;3.53;;
9166;SDS011;4618;48.818;9.088;2023-06-19T02:05:08;4.00;;;3.60;;
9166;SDS011;4618;48.818;9.088;2023-06-19T02:07:34;3.83;;;3.53;;
9166;SDS011;4618;48.818;9.088;2023-06-19T02:09:59;6.57;;;3.60;;
9166;SDS011;4618;48.818;9.088;2023-06-19T02:12:25;4.15;;;3.75;;
9166;SDS011;4618;48.818;9.088;2023-06-19T02:14:51;3.90;;;3.70;;
9166;SDS011;4618;48.818;9.088;2023-06-19T02:17:16;3.73;;;3.53;;
9166;SDS011;4618;48.818;9.088;2023-06-19T02:19:42;6.50;;;3.33;;
9166;SDS011;4618;48.818;9.088;2023-06-19T02:22:08;3.70;;;3.33;;
9166;SDS011;4618;48.818;9.088;2023-06-19T02:24:33;3.77;;;3.47;;
9166;SDS011;4618;48.818;9.088;2023-06-19T02:26:59;3.33;;;3.13;;
9166;SDS011;4618;48.818;9.088;2023-06-19T02:29:26;6.23;;;3.63;;
9166;SDS011;4618;48.818;9.088;2023-06-19T02:31:54;5.03;;;3.53;;
9166;SDS011;4618;48.818;9.088;2023-06-19T02:34:20;3.63;;;3.33;;
9166;SDS011;4618;48.818;9.088;2023-06-19T02:36:49;3.95;;;3.60;;
9166;SDS011;4618;48.818;9.088;2023-06-19T02:39:15;3.63;;;3.17;;
9166;SDS011;4618;48.818;9.088;2023-06-19T02:41:40;3.30;;;3.00;;
9166;SDS011;4618;48.818;9.088;2023-06-19T02:44:10;3.33;;;3.03;;
9166;SDS011;4618;48.818;9.088;2023-06-19T02:46:36;3.60;;;3.37;;
9166;SDS011;4618;48.818;9.088;2023-06-19T02:49:02;3.70;;;2.90;;
9166;SDS011;4618;48.818;9.088;2023-06-19T02:51:28;4.73;;;2.93;;
9166;SDS011;4618;48.818;9.088;2023-06-19T02:53:53;3.13;;;2.93;;
9166;SDS011;4618;48.818;9.088;2023-06-19T02:56:19;2.80;;;2.60;;
9166;SDS011;4618;48.818;9.088;2023-06-19T02:58:44;3.63;;;3.00;;
9166;SDS011;4618;48.818;9.088;2023-06-19T03:01:10;3.03;;;2.83;;
9166;SDS011;4618;48.818;9.088;2023-06-19T03:03:36;3.30;;;3.10;;
9166;SDS011;4618;48.818;9.088;2023-06-19T03:06:05;4.55;;;2.95;;
9166;SDS011;4618;48.818;9.088;2023-06-19T03:08:33;3.00;;;2.70;;
9166;SDS011;4618;48.818;9.088;2023-06-19T03:11:02;3.20;;;3.00;;
9166;SDS011;4618;48.818;9.088;2023-06-19T03:13:43;2.93;;;2.73;;
9166;SDS011;4618;48.818;9.088;2023-06-19T03:16:13;3.10;;;2.90;;
9166;SDS011;4618;48.818;9.088;2023-06-19T03:18:39;3.20;;;2.63;;
9166;SDS011;4618;48.818;9.088;2023-06-19T03:21:06;2.63;;;2.40;;
9166;SDS011;4618;48.818;9.088;2023-06-19T03:23:31;3.40;;;2.53;;
9166;SDS011;4618;48.818;9.088;2023-06-19T03:25:57;4.10;;;2.30;;
9166;SDS011;4618;48.818;9.088;2023-06-19T03:28:23;2.33;;;2.20;;
9166;SDS011;4618;48.818;9.088;2023-06-19T03:30:49;2.30;;;2.20;;
9166;SDS011;4618;48.818;9.088;2023-06-19T03:33:15;2.53;;;2.40;;
9166;SDS011;4618;48.818;9.088;2023-06-19T03:35:40;2.10;;;2.00;;
9166;SDS011;4618;48.818;9.088;2023-06-19T03:38:06;2.70;;;2.17;;
9166;SDS011;4618;48.818;9.088;2023-06-19T03:40:32;2.23;;;2.13;;
9166;SDS011;4618;48.818;9.088;2023-06-19T03:42:57;2.40;;;2.27;;
9166;SDS011;4618;48.818;9.088;2023-06-19T03:45:23;2.50;;;2.30;;
9166;SDS011;4618;48.818;9.088;2023-06-19T03:47:48;2.70;;;2.50;;
9166;SDS011;4618;48.818;9.088;2023-06-19T03:50:14;2.43;;;2.33;;
9166;SDS011;4618;48.818;9.088;2023-06-19T03:52:39;2.43;;;2.33;;
9166;SDS011;4618;48.818;9.088;2023-06-19T03:55:05;2.50;;;2.30;;
9166;SDS011;4618;48.818;9.088;2023-06-19T03:57:30;2.20;;;2.10;;
9166;SDS011;4618;48.818;9.088;2023-06-19T03:59:56;2.60;;;2.40;;
9166;SDS011;4618;48.818;9.088;2023-06-19T04:02:22;2.50;;;2.30;;
9166;SDS011;4618;48.818;9.088;2023-06-19T04:04:47;3.40;;;2.20;;
9166;SDS011;4618;48.818;9.088;2023-06-19T04:07:13;3.07;;;2.10;;
9166;SDS011;4618;48.818;9.088;2023-06-19T04:09:39;2.50;;;2.30;;
9166;SDS011;4618;48.818;9.088;2023-06-19T04:12:05;2.37;;;2.27;;
9166;SDS011;4618;48.818;9.088;2023-06-19T04:14:30;2.77;;;2.20;;
9166;SDS011;4618;48.818;9.088;2023-06-19T04:16:56;2.60;;;2.40;;
9166;SDS011;4618;48.818;9.088;2023-06-19T04:19:22;2.33;;;2.20;;
9166;SDS011;4618;48.818;9.088;2023-06-19T04:21:47;1.80;;;1.70;;
9166;SDS011;4618;48.818;9.088;2023-06-19T04:24:13;2.00;;;1.90;;
9166;SDS011;4618;48.818;9.088;2023-06-19T04:26:38;1.97;;;1.87;;
9166;SDS011;4618;48.818;9.088;2023-06-19T04:29:04;2.20;;;2.10;;
9166;SDS011;4618;48.818;9.088;2023-06-19T04:31:31;2.13;;;2.03;;
9166;SDS011;4618;48.818;9.088;2023-06-19T04:33:57;5.70;;;2.40;;
9166;SDS011;4618;48.818;9.088;2023-06-19T04:36:22;2.40;;;2.20;;
9166;SDS011;4618;48.818;9.088;2023-06-19T04:38:48;2.20;;;2.00;;
9166;SDS011;4618;48.818;9.088;2023-06-19T04:41:17;2.80;;;2.20;;
9166;SDS011;4618;48.818;9.088;2023-06-19T04:43:43;2.60;;;2.40;;
9166;SDS011;4618;48.818;9.088;2023-06-19T04:46:08;2.20;;;2.10;;
9166;SDS011;4618;48.818;9.088;2023-06-19T04:48:34;2.57;;;2.00;;
9166;SDS011;4618;48.818;9.088;2023-06-19T04:51:01;2.50;;;2.30;;
9166;SDS011;4618;48.818;9.088;2023-06-19T04:53:30;2.23;;;2.00;;
9166;SDS011;4618;48.818;9.088;2023-06-19T04:55:59;2.17;;;2.00;;
9166;SDS011;4618;48.818;9.088;2023-06-19T04:58:24;3.00;;;2.30;;
9166;SDS011;4618;48.818;9.088;2023-06-19T05:00:50;2.27;;;2.07;;
9166;SDS011;4618;48.818;9.088;2023-06-19T05:03:16;2.37;;;2.13;;
9166;SDS011;4618;48.818;9.088;2023-06-19T05:05:43;2.20;;;2.10;;
9166;SDS011;4618;48.818;9.088;2023-06-19T05:08:09;2.00;;;1.90;;
9166;SDS011;4618;48.818;9.088;2023-06-19T05:10:34;2.17;;;2.07;;
9166;SDS011;4618;48.818;9.088;2023-06-19T05:13:00;2.07;;;1.97;;
9166;SDS011;4618;48.818;9.088;2023-06-19T05:15:27;2.83;;;1.70;;
9166;SDS011;4618;48.818;9.088;2023-06-19T05:17:53;2.67;;;2.17;;
9166;SDS011;4618;48.818;9.088;2023-06-19T05:20:18;3.00;;;2.60;;
9166;SDS011;4618;48.818;9.088;2023-06-19T05:22:44;2.10;;;2.00;;
9166;SDS011;4618;48.818;9.088;2023-06-19T05:25:10;4.07;;;2.23;;
9166;SDS011;4618;48.818;9.088;2023-06-19T05:27:36;2.60;;;2.23;;
9166;SDS011;4618;48.818;9.088;2023-06-19T05:30:01;2.00;;;1.90;;
9166;SDS011;4618;48.818;9.088;2023-06-19T05:32:27;2.30;;;2.20;;
9166;SDS011;4618;48.818;9.088;2023-06-19T05:34:53;2.23;;;2.10;;
9166;SDS011;4618;48.818;9.088;2023-06-19T05:37:18;2.27;;;2.17;;
9166;SDS011;4618;48.818;9.088;2023-06-19T05:39:44;2.53;;;2.30;;
9166;SDS011;4618;48.818;9.088;2023-06-19T05:42:09;2.00;;;1.83;;
9166;SDS011;4618;48.818;9.088;2023-06-19T05:44:35;2.33;;;1.90;;
9166;SDS011;4618;48.818;9.088;2023-06-19T05:47:00;2.30;;;2.20;;
9166;SDS011;4618;48.818;9.088;2023-06-19T05:49:26;4.20;;;2.50;;
9166;SDS011;4618;48.818;9.088;2023-06-19T05:51:51;2.40;;;2.00;;
9166;SDS011;4618;48.818;9.088;2023-06-19T05:54:17;5.28;;;2.20;;
9166;SDS011;4618;48.818;9.088;2023-06-19T05:56:43;2.55;;;2.35;;
9166;SDS011;4618;48.818;9.088;2023-06-19T05:59:08;2.55;;;2.30;;
9166;SDS011;4618;48.818;9.088;2023-06-19T06:01:34;2.90;;;2.70;;
9166;SDS011;4618;48.818;9.088;2023-06-19T06:03:59;2.50;;;2.35;;
9166;SDS011;4618;48.818;9.088;2023-06-19T06:06:26;2.30;;;2.20;;
9166;SDS011;4618;48.818;9.088;2023-06-19T06:08:52;2.10;;;2.00;;
9166;SDS011;4618;48.818;9.088;2023-06-19T06:11:20;3.88;;;2.30;;
9166;SDS011;4618;48.818;9.088;2023-06-19T06:13:47;2.67;;;2.47;;
9166;SDS011;4618;48.818;9.088;2023-06-19T06:16:13;2.08;;;1.98;;
9166;SDS011;4618;48.818;9.088;2023-06-19T06:18:39;2.45;;;2.30;;
9166;SDS011;4618;48.818;9.088;2023-06-19T06:21:04;2.60;;;2.38;;
9166;SDS011;4618;48.818;9.088;2023-06-19T06:23:30;2.53;;;2.33;;
9166;SDS011;4618;48.818;9.088;2023-06-19T06:25:55;2.90;;;2.25;;
9166;SDS011;4618;48.818;9.088;2023-06-19T06:28:27;2.20;;;2.10;;
9166;SDS011;4618;48.818;9.088;2023-06-19T06:30:52;2.13;;;2.00;;
9166;SDS011;4618;48.818;9.088;2023-06-19T06:33:18;2.47;;;2.28;;
9166;SDS011;4618;48.818;9.088;2023-06-19T06:35:44;2.17;;;1.98;;
9166;SDS011;4618;48.818;9.088;2023-06-19T06:38:09;2.30;;;2.20;;
9166;SDS011;4618;48.818;9.088;2023-06-19T06:40:35;2.05;;;1.90;;
9166;SDS011;4618;48.818;9.088;2023-06-19T06:43:01;2.05;;;1.95;;
9166;SDS011;4618;48.818;9.088;2023-06-19T06:45:27;2.00;;;1.90;;
9166;SDS011;4618;48.818;9.088;2023-06-19T06:47:52;1.77;;;1.75;;
9166;SDS011;4618;48.818;9.088;2023-06-19T06:50:18;1.85;;;1.75;;
9166;SDS011;4618;48.818;9.088;2023-06-19T06:52:43;1.50;;;1.50;;
9166;SDS011;4618;48.818;9.088;2023-06-19T06:55:09;1.90;;;1.80;;
9166;SDS011;4618;48.818;9.088;2023-06-19T06:57:35;2.17;;;2.00;;
9166;SDS011;4618;48.818;9.088;2023-06-19T07:00:00;2.05;;;1.92;;
9166;SDS011;4618;48.818;9.088;2023-06-19T07:02:28;2.10;;;1.90;;
9166;SDS011;4618;48.818;9.088;2023-06-19T07:04:54;2.30;;;2.15;;
9166;SDS011;4618;48.818;9.088;2023-06-19T07:07:20;1.88;;;1.77;;
9166;SDS011;4618;48.818;9.088;2023-06-19T07:09:46;3.58;;;2.00;;
9166;SDS011;4618;48.818;9.088;2023-06-19T07:12:12;2.10;;;1.90;;
9166;SDS011;4618;48.818;9.088;2023-06-19T07:14:37;2.10;;;1.85;;
9166;SDS011;4618;48.818;9.088;2023-06-19T07:17:03;1.80;;;1.70;;
9166;SDS011;4618;48.818;9.088;2023-06-19T07:19:32;2.05;;;1.95;;
9166;SDS011;4618;48.818;9.088;2023-06-19T07:21:57;2.22;;;2.10;;
9166;SDS011;4618;48.818;9.088;2023-06-19T07:24:24;2.60;;;1.98;;
9166;SDS011;4618;48.818;9.088;2023-06-19T07:26:49;1.90;;;1.80;;
9166;SDS011;4618;48.818;9.088;2023-06-19T07:29:15;1.95;;;1.80;;
9166;SDS011;4618;48.818;9.088;2023-06-19T07:31:40;2.08;;;1.85;;
9166;SDS011;4618;48.818;9.088;2023-06-19T07:34:09;3.22;;;1.90;;
9166;SDS011;4618;48.818;9.088;2023-06-19T07:36:34;1.80;;;1.70;;
9166;SDS011;4618;48.818;9.088;2023-06-19T07:39:00;2.03;;;1.92;;
9166;SDS011;4618;48.818;9.088;2023-06-19T07:41:26;1.73;;;1.63;;
9166;SDS011;4618;48.818;9.088;2023-06-19T07:43:52;3.67;;;1.85;;
9166;SDS011;4618;48.818;9.088;2023-06-19T07:46:17;2.00;;;1.90;;
9166;SDS011;4618;48.818;9.088;2023-06-19T07:48:43;1.65;;;1.60;;
9166;SDS011;4618;48.818;9.088;2023-06-19T07:51:08;2.38;;;1.92;;
9166;SDS011;4618;48.818;9.088;2023-06-19T07:53:35;2.58;;;2.10;;
9166;SDS011;4618;48.818;9.088;2023-06-19T07:56:00;2.70;;;1.90;;
9166;SDS011;4618;48.818;9.088;2023-06-19T07:58:26;2.33;;;2.13;;
9166;SDS011;4618;48.818;9.088;2023-06-19T08:00:52;3.92;;;2.05;;
9166;SDS011;4618;48.818;9.088;2023-06-19T08:03:17;2.00;;;1.77;;
9166;SDS011;4618;48.818;9.088;2023-06-19T08:05:43;3.25;;;2.20;;
9166;SDS011;4618;48.818;9.088;2023-06-19T08:08:08;3.38;;;2.15;;
9166;SDS011;4618;48.818;9.088;2023-06-19T08:10:34;3.38;;;1.92;;
9166;SDS011;4618;48.818;9.088;2023-06-19T08:12:59;1.75;;;1.65;;
9166;SDS011;4618;48.818;9.088;2023-06-19T08:15:25;10.52;;;2.05;;
9166;SDS011;4618;48.818;9.088;2023-06-19T08:17:50;1.80;;;1.70;;
9166;SDS011;4618;48.818;9.088;2023-06-19T08:20:16;1.90;;;1.80;;
9166;SDS011;4618;48.818;9.088;2023-06-19T08:22:41;2.00;;;1.90;;
9166;SDS011;4618;48.818;9.088;2023-06-19T08:25:07;1.90;;;1.80;;
9166;SDS011;4618;48.818;9.088;2023-06-19T08:27:33;2.25;;;2.00;;
9166;SDS011;4618;48.818;9.088;2023-06-19T08:29:58;2.15;;;1.70;;
9166;SDS011;4618;48.818;9.088;2023-06-19T08:32:24;2.30;;;2.10;;
9166;SDS011;4618;48.818;9.088;2023-06-19T08:34:50;2.10;;;2.00;;
9166;SDS011;4618;48.818;9.088;2023-06-19T08:37:16;1.95;;;1.85;;
9166;SDS011;4618;48.818;9.088;2023-06-19T08:39:43;2.25;;;2.15;;
9166;SDS011;4618;48.818;9.088;2023-06-19T08:42:09;2.03;;;1.83;;
9166;SDS011;4618;48.818;9.088;2023-06-19T08:44:35;2.55;;;2.00;;
9166;SDS011;4618;48.818;9.088;2023-06-19T08:47:02;3.15;;;1.80;;
9166;SDS011;4618;48.818;9.088;2023-06-19T08:49:33;1.95;;;1.80;;
9166;SDS011;4618;48.818;9.088;2023-06-19T08:51:59;1.83;;;1.73;;
9166;SDS011;4618;48.818;9.088;2023-06-19T08:54:26;2.10;;;1.88;;
9166;SDS011;4618;48.818;9.088;2023-06-19T08:56:51;2.17;;;1.95;;
9166;SDS011;4618;48.818;9.088;2023-06-19T08:59:18;1.90;;;1.80;;
9166;SDS011;4618;48.818;9.088;2023-06-19T09:01:48;3.03;;;1.90;;
9166;SDS011;4618;48.818;9.088;2023-06-19T09:04:17;2.13;;;2.00;;
9166;SDS011;4618;48.818;9.088;2023-06-19T09:06:51;2.72;;;2.53;;
9166;SDS011;4618;48.818;9.088;2023-06-19T09:09:19;1.77;;;1.67;;
9166;SDS011;4618;48.818;9.088;2023-06-19T09:11:56;1.80;;;1.70;;
9166;SDS011;4618;48.818;9.088;2023-06-19T09:17:05;2.53;;;1.75;;
9166;SDS011;4618;48.818;9.088;2023-06-19T09:19:33;1.80;;;1.70;;
9166;SDS011;4618;48.818;9.088;2023-06-19T09:22:03;1.95;;;1.70;;
9166;SDS011;4618;48.818;9.088;2023-06-19T09:24:38;1.98;;;1.88;;
9166;SDS011;4618;48.818;9.088;2023-06-19T09:29:43;1.60;;;1.50;;
9166;SDS011;4618;48.818;9.088;2023-06-19T09:32:16;2.78;;;1.55;;
9166;SDS011;4618;48.818;9.088;2023-06-19T09:34:44;2.08;;;1.80;;
9166;SDS011;4618;48.818;9.088;2023-06-19T09:37:10;1.58;;;1.50;;
9166;SDS011;4618;48.818;9.088;2023-06-19T09:39:36;2.47;;;1.73;;
9166;SDS011;4618;48.818;9.088;2023-06-19T09:42:03;2.05;;;1.95;;
9166;SDS011;4618;48.818;9.088;2023-06-19T09:44:31;1.77;;;1.67;;
9166;SDS011;4618;48.818;9.088;2023-06-19T09:47:03;1.90;;;1.67;;
9166;SDS011;4618;48.818;9.088;2023-06-19T09:49:32;3.03;;;1.75;;
9166;SDS011;4618;48.818;9.088;2023-06-19T09:52:00;2.20;;;2.00;;
9166;SDS011;4618;48.818;9.088;2023-06-19T09:54:27;2.17;;;2.08;;
9166;SDS011;4618;48.818;9.088;2023-06-19T09:56:54;2.10;;;2.00;;
9166;SDS011;4618;48.818;9.088;2023-06-19T09:59:23;2.15;;;1.95;;
9166;SDS011;4618;48.818;9.088;2023-06-19T10:01:49;2.10;;;2.00;;
9166;SDS011;4618;48.818;9.088;2023-06-19T10:04:15;2.20;;;2.00;;
9166;SDS011;4618;48.818;9.088;2023-06-19T10:06:45;2.00;;;1.85;;
9166;SDS011;4618;48.818;9.088;2023-06-19T10:09:13;3.63;;;1.98;;
9166;SDS011;4618;48.818;9.088;2023-06-19T10:14:18;2.70;;;1.92;;
9166;SDS011;4618;48.818;9.088;2023-06-19T10:16:45;2.17;;;1.77;;
9166;SDS011;4618;48.818;9.088;2023-06-19T10:19:11;3.15;;;2.00;;
9166;SDS011;4618;48.818;9.088;2023-06-19T10:21:45;4.47;;;1.90;;
9166;SDS011;4618;48.818;9.088;2023-06-19T10:24:14;1.80;;;1.70;;
9166;SDS011;4618;48.818;9.088;2023-06-19T10:26:42;3.00;;;1.77;;
9166;SDS011;4618;48.818;9.088;2023-06-19T10:29:14;2.42;;;2.03;;
9166;SDS011;4618;48.818;9.088;2023-06-19T10:31:43;2.22;;;1.70;;
9166;SDS011;4618;48.818;9.088;2023-06-19T10:34:09;3.50;;;2.10;;
9166;SDS011;4618;48.818;9.088;2023-06-19T10:36:35;2.75;;;1.95;;
9166;SDS011;4618;48.818;9.088;2023-06-19T10:39:01;2.22;;;2.13;;
9166;SDS011;4618;48.818;9.088;2023-06-19T10:41:26;2.65;;;2.15;;
9166;SDS011;4618;48.818;9.088;2023-06-19T10:43:56;2.50;;;2.05;;
9166;SDS011;4618;48.818;9.088;2023-06-19T10:46:29;2.55;;;2.33;;
9166;SDS011;4618;48.818;9.088;2023-06-19T10:49:02;2.03;;;1.92;;
9166;SDS011;4618;48.818;9.088;2023-06-19T10:51:38;3.38;;;1.98;;
9166;SDS011;4618;48.818;9.088;2023-06-19T10:54:05;2.92;;;2.28;;
9166;SDS011;4618;48.818;9.088;2023-06-19T10:56:31;2.22;;;2.03;;
9166;SDS011;4618;48.818;9.088;2023-06-19T10:59:00;2.28;;;2.17;;
9166;SDS011;4618;48.818;9.088;2023-06-19T11:01:46;2.15;;;2.00;;
9166;SDS011;4618;48.818;9.088;2023-06-19T11:04:13;2.67;;;2.40;;
9166;SDS011;4618;48.818;9.088;2023-06-19T11:06:40;3.50;;;2.20;;
9166;SDS011;4618;48.818;9.088;2023-06-19T11:09:07;2.30;;;2.10;;
9166;SDS011;4618;48.818;9.088;2023-06-19T11:11:46;2.40;;;2.20;;
9166;SDS011;4618;48.818;9.088;2023-06-19T11:14:13;3.03;;;2.30;;
9166;SDS011;4618;48.818;9.088;2023-06-19T11:16:42;2.10;;;2.00;;
9166;SDS011;4618;48.818;9.088;2023-06-19T11:19:16;2.40;;;2.20;;
9166;SDS011;4618;48.818;9.088;2023-06-19T11:21:45;2.38;;;2.17;;
9166;SDS011;4618;48.818;9.088;2023-06-19T11:24:12;3.22;;;2.03;;
9166;SDS011;4618;48.818;9.088;2023-06-19T11:26:42;2.55;;;2.35;;
9166;SDS011;4618;48.818;9.088;2023-06-19T11:29:15;2.08;;;1.98;;
9166;SDS011;4618;48.818;9.088;2023-06-19T11:31:41;2.08;;;1.88;;
9166;SDS011;4618;48.818;9.088;2023-06-19T11:34:07;2.00;;;1.90;;
9166;SDS011;4618;48.818;9.088;2023-06-19T11:36:32;2.25;;;1.80;;
9166;SDS011;4618;48.818;9.088;2023-06-19T11:39:02;1.85;;;1.80;;
9166;SDS011;4618;48.818;9.088;2023-06-19T11:41:30;3.15;;;2.00;;
9166;SDS011;4618;48.818;9.088;2023-06-19T11:43:59;2.28;;;2.08;;
9166;SDS011;4618;48.818;9.088;2023-06-19T11:46:32;3.00;;;1.88;;
9166;SDS011;4618;48.818;9.088;2023-06-19T11:51:34;2.25;;;2.15;;
9166;SDS011;4618;48.818;9.088;2023-06-19T11:54:00;3.35;;;1.95;;
9166;SDS011;4618;48.818;9.088;2023-06-19T11:56:26;2.47;;;2.00;;
9166;SDS011;4618;48.818;9.088;2023-06-19T11:58:52;2.05;;;1.90;;
9166;SDS011;4618;48.818;9.088;2023-06-19T12:01:17;6.45;;;2.00;;
9166;SDS011;4618;48.818;9.088;2023-06-19T12:03:43;2.40;;;1.80;;
9166;SDS011;4618;48.818;9.088;2023-06-19T12:06:08;2.15;;;2.05;;
9166;SDS011;4618;48.818;9.088;2023-06-19T12:08:34;2.85;;;2.65;;
9166;SDS011;4618;48.818;9.088;2023-06-19T12:11:02;2.85;;;2.75;;
9166;SDS011;4618;48.818;9.088;2023-06-19T12:13:28;2.75;;;2.40;;
9166;SDS011;4618;48.818;9.088;2023-06-19T12:15:53;2.70;;;2.50;;
9166;SDS011;4618;48.818;9.088;2023-06-19T12:18:19;3.05;;;2.45;;
9166;SDS011;4618;48.818;9.088;2023-06-19T12:20:45;3.00;;;2.80;;
9166;SDS011;4618;48.818;9.088;2023-06-19T12:23:10;3.25;;;2.10;;
9166;SDS011;4618;48.818;9.088;2023-06-19T12:25:36;4.55;;;4.25;;
9166;SDS011;4618;48.818;9.088;2023-06-19T12:28:01;2.67;;;2.47;;
9166;SDS011;4618;48.818;9.088;2023-06-19T12:30:33;2.67;;;2.47;;
9166;SDS011;4618;48.818;9.088;2023-06-19T12:32:59;2.15;;;2.03;;
9166;SDS011;4618;48.818;9.088;2023-06-19T12:35:25;2.85;;;2.20;;
9166;SDS011;4618;48.818;9.088;2023-06-19T12:37:51;2.60;;;2.38;;
9166;SDS011;4618;48.818;9.088;2023-06-19T12:40:17;2.50;;;2.03;;
9166;SDS011;4618;48.818;9.088;2023-06-19T12:42:43;2.80;;;2.17;;
9166;SDS011;4618;48.818;9.088;2023-06-19T12:45:08;2.15;;;2.03;;
9166;SDS011;4618;48.818;9.088;2023-06-19T12:47:35;2.13;;;2.03;;
9166;SDS011;4618;48.818;9.088;2023-06-19T12:50:01;2.00;;;1.90;;
9166;SDS011;4618;48.818;9.088;2023-06-19T12:52:26;4.03;;;2.20;;
9166;SDS011;4618;48.818;9.088;2023-06-19T12:54:52;2.75;;;2.20;;
9166;SDS011;4618;48.818;9.088;2023-06-19T12:57:18;2.63;;;2.42;;
9166;SDS011;4618;48.818;9.088;2023-06-19T12:59:43;2.17;;;2.08;;
9166;SDS011;4618;48.818;9.088;2023-06-19T13:02:09;2.30;;;2.10;;
9166;SDS011;4618;48.818;9.088;2023-06-19T13:04:34;2.30;;;2.15;;
9166;SDS011;4618;48.818;9.088;2023-06-19T13:07:00;2.35;;;2.13;;
9166;SDS011;4618;48.818;9.088;2023-06-19T13:09:25;2.30;;;2.10;;
9166;SDS011;4618;48.818;9.088;2023-06-19T13:11:51;2.42;;;2.22;;
9166;SDS011;4618;48.818;9.088;2023-06-19T13:14:16;2.28;;;2.08;;
9166;SDS011;4618;48.818;9.088;2023-06-19T13:16:42;2.22;;;2.03;;
9166;SDS011;4618;48.818;9.088;2023-06-19T13:19:08;2.38;;;2.00;;
9166;SDS011;4618;48.818;9.088;2023-06-19T13:21:33;2.20;;;2.10;;
9166;SDS011;4618;48.818;9.088;2023-06-19T13:24:00;3.35;;;1.90;;
9166;SDS011;4618;48.818;9.088;2023-06-19T13:26:26;2.47;;;2.05;;
9166;SDS011;4618;48.818;9.088;2023-06-19T13:28:51;3.53;;;1.80;;
9166;SDS011;4618;48.818;9.088;2023-06-19T13:31:17;3.03;;;2.35;;
9166;SDS011;4618;48.818;9.088;2023-06-19T13:33:43;2.70;;;2.10;;
9166;SDS011;4618;48.818;9.088;2023-06-19T13:36:08;2.45;;;1.90;;
9166;SDS011;4618;48.818;9.088;2023-06-19T13:38:34;2.83;;;2.10;;
9166;SDS011;4618;48.818;9.088;2023-06-19T13:41:00;2.45;;;2.00;;
9166;SDS011;4618;48.818;9.088;2023-06-19T13:43:26;2.50;;;2.03;;
9166;SDS011;4618;48.818;9.088;2023-06-19T13:45:52;3.35;;;2.20;;
9166;SDS011;4618;48.818;9.088;2023-06-19T13:48:17;3.33;;;1.90;;
9166;SDS011;4618;48.818;9.088;2023-06-19T13:50:43;2.05;;;1.88;;
9166;SDS011;4618;48.818;9.088;2023-06-19T13:53:08;4.22;;;2.10;;
9166;SDS011;4618;48.818;9.088;2023-06-19T13:55:34;2.55;;;1.95;;
9166;SDS011;4618;48.818;9.088;2023-06-19T13:58:00;2.22;;;2.13;;
9166;SDS011;4618;48.818;9.088;2023-06-19T14:00:26;2.30;;;2.10;;
9166;SDS011;4618;48.818;9.088;2023-06-19T14:02:51;2.35;;;2.15;;
9166;SDS011;4618;48.818;9.088;2023-06-19T14:05:18;2.10;;;1.95;;
9166;SDS011;4618;48.818;9.088;2023-06-19T14:07:43;2.63;;;2.00;;
9166;SDS011;4618;48.818;9.088;2023-06-19T14:10:09;2.92;;;2.15;;
9166;SDS011;4618;48.818;9.088;2023-06-19T14:12:35;2.25;;;2.15;;
9166;SDS011;4618;48.818;9.088;2023-06-19T14:15:01;2.30;;;2.10;;
9166;SDS011;4618;48.818;9.088;2023-06-19T14:17:26;3.05;;;2.85;;
9166;SDS011;4618;48.818;9.088;2023-06-19T14:19:52;6.07;;;3.67;;
9166;SDS011;4618;48.818;9.088;2023-06-19T14:22:20;2.30;;;2.10;;
9166;SDS011;4618;48.818;9.088;2023-06-19T14:24:46;2.60;;;1.90;;
9166;SDS011;4618;48.818;9.088;2023-06-19T14:27:11;2.75;;;2.08;;
9166;SDS011;4618;48.818;9.088;2023-06-19T14:29:37;3.42;;;1.98;;
9166;SDS011;4618;48.818;9.088;2023-06-19T14:32:03;2.03;;;1.90;;
9166;SDS011;4618;48.818;9.088;2023-06-19T14:34:28;3.15;;;1.95;;
9166;SDS011;4618;48.818;9.088;2023-06-19T14:36:54;2.60;;;2.08;;
9166;SDS011;4618;48.818;9.088;2023-06-19T14:39:20;2.50;;;2.08;;
9166;SDS011;4618;48.818;9.088;2023-06-19T14:41:45;3.42;;;2.08;;
9166;SDS011;4618;48.818;9.088;2023-06-19T14:44:11;2.50;;;2.30;;
9166;SDS011;4618;48.818;9.088;2023-06-19T14:46:36;2.05;;;1.85;;
9166;SDS011;4618;48.818;9.088;2023-06-19T14:49:07;2.80;;;2.33;;
9166;SDS011;4618;48.818;9.088;2023-06-19T14:51:37;3.83;;;2.20;;
9166;SDS011;4618;48.818;9.088;2023-06-19T14:54:03;2.47;;;2.30;;
9166;SDS011;4618;48.818;9.088;2023-06-19T14:56:29;2.25;;;2.15;;
9166;SDS011;4618;48.818;9.088;2023-06-19T14:58:54;3.15;;;2.63;;
9166;SDS011;4618;48.818;9.088;2023-06-19T15:01:20;2.50;;;2.30;;
9166;SDS011;4618;48.818;9.088;2023-06-19T15:03:46;2.13;;;2.03;;
9166;SDS011;4618;48.818;9.088;2023-06-19T15:06:11;3.72;;;2.17;;
9166;SDS011;4618;48.818;9.088;2023-06-19T15:08:37;2.65;;;2.45;;
9166;SDS011;4618;48.818;9.088;2023-06-19T15:11:04;2.50;;;2.30;;
9166;SDS011;4618;48.818;9.088;2023-06-19T15:13:32;3.13;;;2.30;;
9166;SDS011;4618;48.818;9.088;2023-06-19T15:15:58;3.95;;;2.15;;
9166;SDS011;4618;48.818;9.088;2023-06-19T15:18:24;3.47;;;2.60;;
9166;SDS011;4618;48.818;9.088;2023-06-19T15:20:51;2.10;;;2.00;;
9166;SDS011;4618;48.818;9.088;2023-06-19T15:23:16;4.32;;;2.58;;
9166;SDS011;4618;48.818;9.088;2023-06-19T15:25:42;2.40;;;2.30;;